sensor_id;sensor_type;location;lat;lon;timestamp;temperature;humidity
11107;DHT22;5607;48.302;14.294;2024-03-02T00:00:19;9.30;36.30
11107;DHT22;5607;48.302;14.294;2024-03-02T00:03:07;9.30;37.40
11107;DHT22;5607;48.302;14.294;2024-03-02T00:05:55;9.30;39.10
11107;DHT22;5607;48.302;14.294;2024-03-02T00:08:42;9.20;41.60
11107;DHT22;5607;48.302;14.294;2024-03-02T00:11:29;9.20;50.80
11107;DHT22;5607;48.302;14.294;2024-03-02T00:14:15;9.20;55.00
11107;DHT22;5607;48.302;14.294;2024-03-02T00:17:03;9.20;53.90
11107;DHT22;5607;48.302;14.294;2024-03-02T00:19:49;9.10;64.60
11107;DHT22;5607;48.302;14.294;2024-03-02T00:22:36;9.10;70.10
11107;DHT22;5607;48.302;14.294;2024-03-02T00:25:23;9.10;74.10
11107;DHT22;5607;48.302;14.294;2024-03-02T00:28:13;9.00;76.70
11107;DHT22;5607;48.302;14.294;2024-03-02T00:31:07;9.00;78.10
11107;DHT22;5607;48.302;14.294;2024-03-02T00:33:55;9.00;89.60
11107;DHT22;5607;48.302;14.294;2024-03-02T00:36:41;9.00;95.90
11107;DHT22;5607;48.302;14.294;2024-03-02T00:39:28;9.00;93.20
11107;DHT22;5607;48.302;14.294;2024-03-02T00:42:16;8.90;92.10
11107;DHT22;5607;48.302;14.294;2024-03-02T00:45:07;8.80;99.50
11107;DHT22;5607;48.302;14.294;2024-03-02T00:47:54;8.80;99.90
11107;DHT22;5607;48.302;14.294;2024-03-02T00:50:42;8.80;99.90
11107;DHT22;5607;48.302;14.294;2024-03-02T00:53:29;8.80;99.90
11107;DHT22;5607;48.302;14.294;2024-03-02T00:56:17;8.80;99.90
11107;DHT22;5607;48.302;14.294;2024-03-02T00:59:04;8.80;99.90
11107;DHT22;5607;48.302;14.294;2024-03-02T01:01:52;8.80;99.90
11107;DHT22;5607;48.302;14.294;2024-03-02T01:04:39;8.80;99.90
11107;DHT22;5607;48.302;14.294;2024-03-02T01:07:26;8.80;99.90
11107;DHT22;5607;48.302;14.294;2024-03-02T01:10:12;8.80;99.90
11107;DHT22;5607;48.302;14.294;2024-03-02T01:12:59;8.70;99.90
11107;DHT22;5607;48.302;14.294;2024-03-02T01:15:46;8.70;99.90
11107;DHT22;5607;48.302;14.294;2024-03-02T01:18:32;8.70;99.90
11107;DHT22;5607;48.302;14.294;2024-03-02T01:21:19;8.60;99.90
11107;DHT22;5607;48.302;14.294;2024-03-02T01:24:06;8.50;99.90
11107;DHT22;5607;48.302;14.294;2024-03-02T01:26:53;8.40;99.90
11107;DHT22;5607;48.302;14.294;2024-03-02T01:29:39;8.40;99.90
11107;DHT22;5607;48.302;14.294;2024-03-02T01:32:26;8.50;99.90
11107;DHT22;5607;48.302;14.294;2024-03-02T01:35:13;8.50;99.90
11107;DHT22;5607;48.302;14.294;2024-03-02T01:38:01;8.60;99.90
11107;DHT22;5607;48.302;14.294;2024-03-02T01:40:48;8.70;99.90
11107;DHT22;5607;48.302;14.294;2024-03-02T01:43:34;8.80;99.90
11107;DHT22;5607;48.302;14.294;2024-03-02T01:46:21;8.90;92.30
11107;DHT22;5607;48.302;14.294;2024-03-02T01:49:07;8.90;73.20
11107;DHT22;5607;48.302;14.294;2024-03-02T01:51:54;8.90;70.40
11107;DHT22;5607;48.302;14.294;2024-03-02T01:54:43;8.80;80.70
11107;DHT22;5607;48.302;14.294;2024-03-02T01:57:30;8.80;82.40
11107;DHT22;5607;48.302;14.294;2024-03-02T02:00:17;8.70;84.30
11107;DHT22;5607;48.302;14.294;2024-03-02T02:03:05;8.60;96.00
11107;DHT22;5607;48.302;14.294;2024-03-02T02:05:52;8.60;99.90
11107;DHT22;5607;48.302;14.294;2024-03-02T02:08:39;8.60;96.80
11107;DHT22;5607;48.302;14.294;2024-03-02T02:11:26;8.40;91.90
11107;DHT22;5607;48.302;14.294;2024-03-02T02:14:12;8.40;89.80
11107;DHT22;5607;48.302;14.294;2024-03-02T02:16:59;8.30;94.10
11107;DHT22;5607;48.302;14.294;2024-03-02T02:19:46;8.40;82.30
11107;DHT22;5607;48.302;14.294;2024-03-02T02:22:33;8.40;40.90
11107;DHT22;5607;48.302;14.294;2024-03-02T02:25:19;8.30;30.40
11107;DHT22;5607;48.302;14.294;2024-03-02T02:28:07;8.30;28.70
11107;DHT22;5607;48.302;14.294;2024-03-02T02:30:54;8.40;38.60
11107;DHT22;5607;48.302;14.294;2024-03-02T02:33:42;8.40;29.20
11107;DHT22;5607;48.302;14.294;2024-03-02T02:36:29;8.40;19.30
11107;DHT22;5607;48.302;14.294;2024-03-02T02:39:16;8.50;26.00
11107;DHT22;5607;48.302;14.294;2024-03-02T02:42:05;8.50;25.20
11107;DHT22;5607;48.302;14.294;2024-03-02T02:44:53;8.50;26.80
11107;DHT22;5607;48.302;14.294;2024-03-02T02:47:40;8.50;24.20
11107;DHT22;5607;48.302;14.294;2024-03-02T02:50:27;8.50;18.10
11107;DHT22;5607;48.302;14.294;2024-03-02T02:53:14;8.50;14.30
11107;DHT22;5607;48.302;14.294;2024-03-02T02:56:01;8.50;15.10
11107;DHT22;5607;48.302;14.294;2024-03-02T02:58:48;8.50;23.30
11107;DHT22;5607;48.302;14.294;2024-03-02T03:01:34;8.50;41.50
11107;DHT22;5607;48.302;14.294;2024-03-02T03:04:21;8.50;43.40
11107;DHT22;5607;48.302;14.294;2024-03-02T03:07:07;8.60;46.30
11107;DHT22;5607;48.302;14.294;2024-03-02T03:09:54;8.60;43.90
11107;DHT22;5607;48.302;14.294;2024-03-02T03:12:40;8.60;33.90
11107;DHT22;5607;48.302;14.294;2024-03-02T03:15:28;8.60;21.50
11107;DHT22;5607;48.302;14.294;2024-03-02T03:18:15;8.60;21.90
11107;DHT22;5607;48.302;14.294;2024-03-02T03:21:02;8.70;23.40
11107;DHT22;5607;48.302;14.294;2024-03-02T03:23:48;8.70;23.90
11107;DHT22;5607;48.302;14.294;2024-03-02T03:26:35;8.70;21.40
11107;DHT22;5607;48.302;14.294;2024-03-02T03:29:22;8.70;18.50
11107;DHT22;5607;48.302;14.294;2024-03-02T03:32:09;8.70;25.30
11107;DHT22;5607;48.302;14.294;2024-03-02T03:34:56;8.70;28.30
11107;DHT22;5607;48.302;14.294;2024-03-02T03:37:42;8.70;11.50
11107;DHT22;5607;48.302;14.294;2024-03-02T03:40:31;8.70;10.60
11107;DHT22;5607;48.302;14.294;2024-03-02T03:43:18;8.70;9.80
11107;DHT22;5607;48.302;14.294;2024-03-02T03:46:05;8.80;11.40
11107;DHT22;5607;48.302;14.294;2024-03-02T03:48:51;8.80;1.00
11107;DHT22;5607;48.302;14.294;2024-03-02T03:51:38;8.80;1.00
11107;DHT22;5607;48.302;14.294;2024-03-02T03:54:24;8.70;1.00
11107;DHT22;5607;48.302;14.294;2024-03-02T03:57:11;8.70;1.00
11107;DHT22;5607;48.302;14.294;2024-03-02T03:59:57;8.60;1.00
11107;DHT22;5607;48.302;14.294;2024-03-02T04:02:44;8.60;1.00
11107;DHT22;5607;48.302;14.294;2024-03-02T04:05:30;8.60;1.00
11107;DHT22;5607;48.302;14.294;2024-03-02T04:08:17;8.70;6.60
11107;DHT22;5607;48.302;14.294;2024-03-02T04:11:04;8.70;5.80
11107;DHT22;5607;48.302;14.294;2024-03-02T04:13:52;8.70;4.20
11107;DHT22;5607;48.302;14.294;2024-03-02T04:16:38;8.70;1.00
11107;DHT22;5607;48.302;14.294;2024-03-02T04:19:25;8.80;1.00
11107;DHT22;5607;48.302;14.294;2024-03-02T04:22:12;8.70;1.00
11107;DHT22;5607;48.302;14.294;2024-03-02T04:24:59;8.70;1.00
11107;DHT22;5607;48.302;14.294;2024-03-02T04:27:45;8.70;1.00
11107;DHT22;5607;48.302;14.294;2024-03-02T04:30:32;8.80;1.00
11107;DHT22;5607;48.302;14.294;2024-03-02T04:33:19;8.80;1.00
11107;DHT22;5607;48.302;14.294;2024-03-02T04:36:06;8.80;1.00
11107;DHT22;5607;48.302;14.294;2024-03-02T04:38:55;8.90;1.00
11107;DHT22;5607;48.302;14.294;2024-03-02T04:41:42;9.00;1.00
11107;DHT22;5607;48.302;14.294;2024-03-02T04:44:28;9.00;1.00
11107;DHT22;5607;48.302;14.294;2024-03-02T04:47:15;9.00;1.00
11107;DHT22;5607;48.302;14.294;2024-03-02T04:50:01;9.00;1.00
11107;DHT22;5607;48.302;14.294;2024-03-02T04:52:49;9.00;1.00
11107;DHT22;5607;48.302;14.294;2024-03-02T04:55:35;9.00;1.00
11107;DHT22;5607;48.302;14.294;2024-03-02T04:58:25;8.90;1.00
11107;DHT22;5607;48.302;14.294;2024-03-02T05:01:11;8.90;1.00
11107;DHT22;5607;48.302;14.294;2024-03-02T05:03:59;8.80;1.00
11107;DHT22;5607;48.302;14.294;2024-03-02T05:06:46;8.80;1.00
11107;DHT22;5607;48.302;14.294;2024-03-02T05:09:39;8.70;1.00
11107;DHT22;5607;48.302;14.294;2024-03-02T05:12:27;8.70;1.00
11107;DHT22;5607;48.302;14.294;2024-03-02T05:15:28;8.60;1.80
11107;DHT22;5607;48.302;14.294;2024-03-02T05:18:16;8.60;8.50
11107;DHT22;5607;48.302;14.294;2024-03-02T05:21:03;8.70;14.80
11107;DHT22;5607;48.302;14.294;2024-03-02T05:23:50;8.60;2.90
11107;DHT22;5607;48.302;14.294;2024-03-02T05:26:36;8.70;6.20
11107;DHT22;5607;48.302;14.294;2024-03-02T05:29:23;8.70;4.80
11107;DHT22;5607;48.302;14.294;2024-03-02T05:32:09;8.70;1.00
11107;DHT22;5607;48.302;14.294;2024-03-02T05:34:56;8.70;5.10
11107;DHT22;5607;48.302;14.294;2024-03-02T05:37:42;8.80;2.50
11107;DHT22;5607;48.302;14.294;2024-03-02T05:40:29;8.80;1.00
11107;DHT22;5607;48.302;14.294;2024-03-02T05:43:15;8.80;1.00
11107;DHT22;5607;48.302;14.294;2024-03-02T05:46:02;8.90;1.00
11107;DHT22;5607;48.302;14.294;2024-03-02T05:48:49;9.00;1.00
11107;DHT22;5607;48.302;14.294;2024-03-02T05:51:36;8.90;1.00
11107;DHT22;5607;48.302;14.294;2024-03-02T05:54:23;8.90;1.00
11107;DHT22;5607;48.302;14.294;2024-03-02T05:57:10;8.80;1.00
11107;DHT22;5607;48.302;14.294;2024-03-02T06:00:03;8.70;1.00
11107;DHT22;5607;48.302;14.294;2024-03-02T06:02:54;8.70;1.00
11107;DHT22;5607;48.302;14.294;2024-03-02T06:05:40;8.70;1.00
11107;DHT22;5607;48.302;14.294;2024-03-02T06:08:27;8.70;1.00
11107;DHT22;5607;48.302;14.294;2024-03-02T06:11:13;8.70;1.00
11107;DHT22;5607;48.302;14.294;2024-03-02T06:14:00;8.70;1.00
11107;DHT22;5607;48.302;14.294;2024-03-02T06:16:46;8.70;1.00
11107;DHT22;5607;48.302;14.294;2024-03-02T06:19:33;8.70;1.00
11107;DHT22;5607;48.302;14.294;2024-03-02T06:22:20;8.80;1.00
11107;DHT22;5607;48.302;14.294;2024-03-02T06:25:08;8.80;1.00
11107;DHT22;5607;48.302;14.294;2024-03-02T06:27:55;8.90;1.00
11107;DHT22;5607;48.302;14.294;2024-03-02T06:30:42;9.00;1.00
11107;DHT22;5607;48.302;14.294;2024-03-02T06:33:29;9.00;1.00
11107;DHT22;5607;48.302;14.294;2024-03-02T06:36:16;9.00;1.00
11107;DHT22;5607;48.302;14.294;2024-03-02T06:39:03;9.10;1.00
11107;DHT22;5607;48.302;14.294;2024-03-02T06:41:49;9.10;1.00
11107;DHT22;5607;48.302;14.294;2024-03-02T06:44:36;9.10;1.00
11107;DHT22;5607;48.302;14.294;2024-03-02T06:47:22;9.10;1.00
11107;DHT22;5607;48.302;14.294;2024-03-02T06:50:10;9.20;1.00
11107;DHT22;5607;48.302;14.294;2024-03-02T06:52:58;9.20;1.00
11107;DHT22;5607;48.302;14.294;2024-03-02T06:55:52;9.20;1.00
11107;DHT22;5607;48.302;14.294;2024-03-02T06:58:39;9.40;1.00
11107;DHT22;5607;48.302;14.294;2024-03-02T07:01:26;9.50;1.00
11107;DHT22;5607;48.302;14.294;2024-03-02T07:04:14;9.50;1.00
11107;DHT22;5607;48.302;14.294;2024-03-02T07:07:00;9.50;1.00
11107;DHT22;5607;48.302;14.294;2024-03-02T07:09:47;9.50;1.00
11107;DHT22;5607;48.302;14.294;2024-03-02T07:12:35;9.50;1.00
11107;DHT22;5607;48.302;14.294;2024-03-02T07:15:23;9.50;1.00
11107;DHT22;5607;48.302;14.294;2024-03-02T07:18:31;9.50;1.00
11107;DHT22;5607;48.302;14.294;2024-03-02T07:21:17;9.60;1.00
11107;DHT22;5607;48.302;14.294;2024-03-02T07:24:04;9.70;1.00
11107;DHT22;5607;48.302;14.294;2024-03-02T07:26:52;9.70;1.00
11107;DHT22;5607;48.302;14.294;2024-03-02T07:29:39;9.70;1.00
11107;DHT22;5607;48.302;14.294;2024-03-02T07:32:26;9.70;1.00
11107;DHT22;5607;48.302;14.294;2024-03-02T07:35:12;9.80;1.00
11107;DHT22;5607;48.302;14.294;2024-03-02T07:38:00;9.90;1.00
11107;DHT22;5607;48.302;14.294;2024-03-02T07:40:47;10.00;1.00
11107;DHT22;5607;48.302;14.294;2024-03-02T07:43:36;10.00;1.00
11107;DHT22;5607;48.302;14.294;2024-03-02T07:46:23;10.00;1.00
11107;DHT22;5607;48.302;14.294;2024-03-02T07:49:10;10.10;1.00
11107;DHT22;5607;48.302;14.294;2024-03-02T07:51:59;10.20;1.00
11107;DHT22;5607;48.302;14.294;2024-03-02T07:54:45;10.20;1.00
11107;DHT22;5607;48.302;14.294;2024-03-02T07:57:32;10.30;1.00
11107;DHT22;5607;48.302;14.294;2024-03-02T08:00:19;10.30;1.00
11107;DHT22;5607;48.302;14.294;2024-03-02T08:03:06;10.30;1.00
11107;DHT22;5607;48.302;14.294;2024-03-02T08:05:53;10.30;1.00
11107;DHT22;5607;48.302;14.294;2024-03-02T08:08:40;10.30;1.00
11107;DHT22;5607;48.302;14.294;2024-03-02T08:11:27;10.40;1.00
11107;DHT22;5607;48.302;14.294;2024-03-02T08:14:13;10.50;1.00
11107;DHT22;5607;48.302;14.294;2024-03-02T08:17:00;10.50;1.00
11107;DHT22;5607;48.302;14.294;2024-03-02T08:19:47;10.50;1.00
11107;DHT22;5607;48.302;14.294;2024-03-02T08:22:34;10.60;1.00
11107;DHT22;5607;48.302;14.294;2024-03-02T08:25:21;10.70;1.00
11107;DHT22;5607;48.302;14.294;2024-03-02T08:28:08;10.70;1.00
11107;DHT22;5607;48.302;14.294;2024-03-02T08:30:55;10.80;1.00
11107;DHT22;5607;48.302;14.294;2024-03-02T08:33:43;10.80;1.00
11107;DHT22;5607;48.302;14.294;2024-03-02T08:36:29;10.80;1.00
11107;DHT22;5607;48.302;14.294;2024-03-02T08:39:16;10.80;1.00
11107;DHT22;5607;48.302;14.294;2024-03-02T08:42:03;10.80;1.00
11107;DHT22;5607;48.302;14.294;2024-03-02T08:44:50;10.70;1.00
11107;DHT22;5607;48.302;14.294;2024-03-02T08:47:38;10.70;1.00
11107;DHT22;5607;48.302;14.294;2024-03-02T08:50:24;10.80;1.00
11107;DHT22;5607;48.302;14.294;2024-03-02T08:53:11;10.80;1.00
11107;DHT22;5607;48.302;14.294;2024-03-02T08:55:59;10.70;1.00
11107;DHT22;5607;48.302;14.294;2024-03-02T08:58:46;10.80;1.00
11107;DHT22;5607;48.302;14.294;2024-03-02T09:01:32;10.90;1.00
11107;DHT22;5607;48.302;14.294;2024-03-02T09:04:20;10.90;1.00
11107;DHT22;5607;48.302;14.294;2024-03-02T09:07:08;10.90;1.00
11107;DHT22;5607;48.302;14.294;2024-03-02T09:09:55;10.90;1.00
11107;DHT22;5607;48.302;14.294;2024-03-02T09:12:41;11.00;1.00
11107;DHT22;5607;48.302;14.294;2024-03-02T09:15:29;11.00;1.00
11107;DHT22;5607;48.302;14.294;2024-03-02T09:18:17;11.00;1.00
11107;DHT22;5607;48.302;14.294;2024-03-02T09:21:03;11.00;1.00
11107;DHT22;5607;48.302;14.294;2024-03-02T09:23:52;10.90;1.00
11107;DHT22;5607;48.302;14.294;2024-03-02T09:26:38;10.90;1.00
11107;DHT22;5607;48.302;14.294;2024-03-02T09:29:25;10.90;1.00
11107;DHT22;5607;48.302;14.294;2024-03-02T09:32:12;11.00;1.00
11107;DHT22;5607;48.302;14.294;2024-03-02T09:34:59;11.00;1.00
11107;DHT22;5607;48.302;14.294;2024-03-02T09:37:46;10.90;1.00
11107;DHT22;5607;48.302;14.294;2024-03-02T09:40:33;11.00;1.00
11107;DHT22;5607;48.302;14.294;2024-03-02T09:43:19;11.10;1.00
11107;DHT22;5607;48.302;14.294;2024-03-02T09:46:10;11.10;1.00
11107;DHT22;5607;48.302;14.294;2024-03-02T09:48:57;11.10;1.00
11107;DHT22;5607;48.302;14.294;2024-03-02T09:51:46;11.10;1.00
11107;DHT22;5607;48.302;14.294;2024-03-02T09:54:35;11.00;1.00
11107;DHT22;5607;48.302;14.294;2024-03-02T09:57:21;11.10;1.00
11107;DHT22;5607;48.302;14.294;2024-03-02T10:00:08;11.10;1.00
11107;DHT22;5607;48.302;14.294;2024-03-02T10:09:11;11.20;1.00
11107;DHT22;5607;48.302;14.294;2024-03-02T10:12:13;11.20;1.00
11107;DHT22;5607;48.302;14.294;2024-03-02T10:15:04;11.40;1.00
11107;DHT22;5607;48.302;14.294;2024-03-02T10:17:53;11.40;1.00
11107;DHT22;5607;48.302;14.294;2024-03-02T10:24:06;11.40;1.00
11107;DHT22;5607;48.302;14.294;2024-03-02T10:26:53;11.60;1.00
11107;DHT22;5607;48.302;14.294;2024-03-02T10:29:40;11.60;99.90
11107;DHT22;5607;48.302;14.294;2024-03-02T10:32:27;11.70;1.00
11107;DHT22;5607;48.302;14.294;2024-03-02T10:35:14;11.80;99.90
11107;DHT22;5607;48.302;14.294;2024-03-02T10:38:03;11.80;99.90
11107;DHT22;5607;48.302;14.294;2024-03-02T10:40:51;11.90;99.90
11107;DHT22;5607;48.302;14.294;2024-03-02T10:43:39;12.00;99.90
11107;DHT22;5607;48.302;14.294;2024-03-02T10:46:29;12.10;99.90
11107;DHT22;5607;48.302;14.294;2024-03-02T10:49:17;12.20;99.90
11107;DHT22;5607;48.302;14.294;2024-03-02T10:52:04;12.20;99.90
11107;DHT22;5607;48.302;14.294;2024-03-02T10:54:50;12.20;99.90
11107;DHT22;5607;48.302;14.294;2024-03-02T10:57:53;12.20;99.90
11107;DHT22;5607;48.302;14.294;2024-03-02T11:00:42;12.10;99.90
11107;DHT22;5607;48.302;14.294;2024-03-02T11:03:33;12.10;99.90
11107;DHT22;5607;48.302;14.294;2024-03-02T11:06:21;12.10;99.90
11107;DHT22;5607;48.302;14.294;2024-03-02T11:09:10;12.00;99.90
11107;DHT22;5607;48.302;14.294;2024-03-02T11:15:23;12.00;99.90
11107;DHT22;5607;48.302;14.294;2024-03-02T11:18:12;11.90;99.90
11107;DHT22;5607;48.302;14.294;2024-03-02T11:21:00;12.00;99.90
11107;DHT22;5607;48.302;14.294;2024-03-02T11:23:49;11.90;99.90
11107;DHT22;5607;48.302;14.294;2024-03-02T11:26:38;11.90;99.90
11107;DHT22;5607;48.302;14.294;2024-03-02T11:32:22;12.00;99.90
11107;DHT22;5607;48.302;14.294;2024-03-02T11:35:12;11.90;99.90
11107;DHT22;5607;48.302;14.294;2024-03-02T11:37:59;12.00;99.90
11107;DHT22;5607;48.302;14.294;2024-03-02T11:40:47;12.20;99.90
11107;DHT22;5607;48.302;14.294;2024-03-02T11:43:36;12.50;99.90
11107;DHT22;5607;48.302;14.294;2024-03-02T11:46:25;12.60;99.90
11107;DHT22;5607;48.302;14.294;2024-03-02T11:49:15;12.70;99.90
11107;DHT22;5607;48.302;14.294;2024-03-02T11:52:07;12.70;99.90
11107;DHT22;5607;48.302;14.294;2024-03-02T11:54:55;12.90;99.90
11107;DHT22;5607;48.302;14.294;2024-03-02T11:57:43;13.00;99.90
11107;DHT22;5607;48.302;14.294;2024-03-02T12:00:30;13.00;99.90
11107;DHT22;5607;48.302;14.294;2024-03-02T12:03:17;13.00;99.90
11107;DHT22;5607;48.302;14.294;2024-03-02T12:06:03;13.20;99.90
11107;DHT22;5607;48.302;14.294;2024-03-02T12:08:52;13.20;99.90
11107;DHT22;5607;48.302;14.294;2024-03-02T12:11:40;13.50;99.90
11107;DHT22;5607;48.302;14.294;2024-03-02T12:14:26;13.70;99.90
11107;DHT22;5607;48.302;14.294;2024-03-02T12:17:15;13.80;99.90
11107;DHT22;5607;48.302;14.294;2024-03-02T12:20:01;13.90;99.90
11107;DHT22;5607;48.302;14.294;2024-03-02T12:22:53;14.00;99.90
11107;DHT22;5607;48.302;14.294;2024-03-02T12:25:40;13.90;99.90
11107;DHT22;5607;48.302;14.294;2024-03-02T12:28:28;14.00;99.90
11107;DHT22;5607;48.302;14.294;2024-03-02T12:31:14;13.80;99.90
11107;DHT22;5607;48.302;14.294;2024-03-02T12:34:02;13.80;99.90
11107;DHT22;5607;48.302;14.294;2024-03-02T12:36:50;13.60;99.90
11107;DHT22;5607;48.302;14.294;2024-03-02T12:39:39;13.90;99.90
11107;DHT22;5607;48.302;14.294;2024-03-02T12:42:25;13.80;99.90
11107;DHT22;5607;48.302;14.294;2024-03-02T12:45:12;13.80;99.90
11107;DHT22;5607;48.302;14.294;2024-03-02T12:48:01;13.80;99.90
11107;DHT22;5607;48.302;14.294;2024-03-02T12:50:49;13.70;99.90
11107;DHT22;5607;48.302;14.294;2024-03-02T12:53:35;13.70;99.90
11107;DHT22;5607;48.302;14.294;2024-03-02T12:56:24;13.70;99.90
11107;DHT22;5607;48.302;14.294;2024-03-02T12:59:18;13.60;99.90
11107;DHT22;5607;48.302;14.294;2024-03-02T13:02:07;13.70;99.90
11107;DHT22;5607;48.302;14.294;2024-03-02T13:05:03;13.80;99.90
11107;DHT22;5607;48.302;14.294;2024-03-02T13:07:57;13.80;99.90
11107;DHT22;5607;48.302;14.294;2024-03-02T13:10:45;13.90;99.90
11107;DHT22;5607;48.302;14.294;2024-03-02T13:13:33;13.90;99.90
11107;DHT22;5607;48.302;14.294;2024-03-02T13:16:20;14.10;99.90
11107;DHT22;5607;48.302;14.294;2024-03-02T13:19:07;14.20;99.90
11107;DHT22;5607;48.302;14.294;2024-03-02T13:21:54;14.30;99.90
11107;DHT22;5607;48.302;14.294;2024-03-02T13:24:41;14.40;99.90
11107;DHT22;5607;48.302;14.294;2024-03-02T13:27:29;14.40;99.90
11107;DHT22;5607;48.302;14.294;2024-03-02T13:30:17;14.50;99.90
11107;DHT22;5607;48.302;14.294;2024-03-02T13:33:04;14.50;99.90
11107;DHT22;5607;48.302;14.294;2024-03-02T13:35:51;14.40;99.90
11107;DHT22;5607;48.302;14.294;2024-03-02T13:38:38;14.40;99.90
11107;DHT22;5607;48.302;14.294;2024-03-02T13:41:24;14.40;99.90
11107;DHT22;5607;48.302;14.294;2024-03-02T13:44:11;14.50;99.90
11107;DHT22;5607;48.302;14.294;2024-03-02T13:46:59;14.50;99.90
11107;DHT22;5607;48.302;14.294;2024-03-02T13:49:47;14.50;99.90
11107;DHT22;5607;48.302;14.294;2024-03-02T13:52:35;14.60;99.90
11107;DHT22;5607;48.302;14.294;2024-03-02T13:55:22;14.50;99.90
11107;DHT22;5607;48.302;14.294;2024-03-02T13:58:09;14.60;99.90
11107;DHT22;5607;48.302;14.294;2024-03-02T14:00:56;14.80;99.90
11107;DHT22;5607;48.302;14.294;2024-03-02T14:03:43;14.90;99.90
11107;DHT22;5607;48.302;14.294;2024-03-02T14:06:31;15.00;99.90
11107;DHT22;5607;48.302;14.294;2024-03-02T14:09:17;15.10;99.90
11107;DHT22;5607;48.302;14.294;2024-03-02T14:12:06;15.20;99.90
11107;DHT22;5607;48.302;14.294;2024-03-02T14:14:53;15.20;99.90
11107;DHT22;5607;48.302;14.294;2024-03-02T14:17:44;15.30;99.90
11107;DHT22;5607;48.302;14.294;2024-03-02T14:20:30;15.30;99.90
11107;DHT22;5607;48.302;14.294;2024-03-02T14:23:19;15.20;99.90
11107;DHT22;5607;48.302;14.294;2024-03-02T14:26:06;15.20;99.90
11107;DHT22;5607;48.302;14.294;2024-03-02T14:28:53;15.10;99.90
11107;DHT22;5607;48.302;14.294;2024-03-02T14:31:39;15.10;99.90
11107;DHT22;5607;48.302;14.294;2024-03-02T14:34:27;15.10;99.90
11107;DHT22;5607;48.302;14.294;2024-03-02T14:37:14;15.20;99.90
11107;DHT22;5607;48.302;14.294;2024-03-02T14:40:01;15.00;99.90
11107;DHT22;5607;48.302;14.294;2024-03-02T14:42:48;14.70;99.90
11107;DHT22;5607;48.302;14.294;2024-03-02T14:45:34;14.70;99.90
11107;DHT22;5607;48.302;14.294;2024-03-02T14:48:22;14.70;99.90
11107;DHT22;5607;48.302;14.294;2024-03-02T14:51:09;14.50;99.90
11107;DHT22;5607;48.302;14.294;2024-03-02T14:53:56;14.50;99.90
11107;DHT22;5607;48.302;14.294;2024-03-02T14:56:43;14.40;99.90
11107;DHT22;5607;48.302;14.294;2024-03-02T14:59:30;14.30;99.90
11107;DHT22;5607;48.302;14.294;2024-03-02T15:02:16;14.30;99.90
11107;DHT22;5607;48.302;14.294;2024-03-02T15:05:04;14.20;99.90
11107;DHT22;5607;48.302;14.294;2024-03-02T15:07:54;14.20;99.90
11107;DHT22;5607;48.302;14.294;2024-03-02T15:10:41;14.20;99.90
11107;DHT22;5607;48.302;14.294;2024-03-02T15:13:27;14.10;99.90
11107;DHT22;5607;48.302;14.294;2024-03-02T15:16:14;14.10;99.90
11107;DHT22;5607;48.302;14.294;2024-03-02T15:19:01;14.10;99.90
11107;DHT22;5607;48.302;14.294;2024-03-02T15:21:48;13.90;99.90
11107;DHT22;5607;48.302;14.294;2024-03-02T15:24:34;13.90;99.90
11107;DHT22;5607;48.302;14.294;2024-03-02T15:27:21;13.90;99.90
11107;DHT22;5607;48.302;14.294;2024-03-02T15:30:08;14.10;99.90
11107;DHT22;5607;48.302;14.294;2024-03-02T15:32:55;13.90;99.90
11107;DHT22;5607;48.302;14.294;2024-03-02T15:35:41;13.90;99.90
11107;DHT22;5607;48.302;14.294;2024-03-02T15:38:28;13.70;99.90
11107;DHT22;5607;48.302;14.294;2024-03-02T15:41:14;13.70;99.90
11107;DHT22;5607;48.302;14.294;2024-03-02T15:44:01;13.60;99.90
11107;DHT22;5607;48.302;14.294;2024-03-02T15:46:51;13.50;99.90
11107;DHT22;5607;48.302;14.294;2024-03-02T15:49:37;13.40;99.90
11107;DHT22;5607;48.302;14.294;2024-03-02T15:52:24;13.40;99.90
11107;DHT22;5607;48.302;14.294;2024-03-02T15:55:11;13.30;99.90
11107;DHT22;5607;48.302;14.294;2024-03-02T15:57:57;13.30;99.90
11107;DHT22;5607;48.302;14.294;2024-03-02T16:00:44;13.30;99.90
11107;DHT22;5607;48.302;14.294;2024-03-02T16:03:31;13.30;99.90
11107;DHT22;5607;48.302;14.294;2024-03-02T16:06:18;13.30;99.90
11107;DHT22;5607;48.302;14.294;2024-03-02T16:09:06;13.30;99.90
11107;DHT22;5607;48.302;14.294;2024-03-02T16:11:57;13.20;99.90
11107;DHT22;5607;48.302;14.294;2024-03-02T16:14:44;13.10;99.90
11107;DHT22;5607;48.302;14.294;2024-03-02T16:17:30;13.00;99.90
11107;DHT22;5607;48.302;14.294;2024-03-02T16:20:17;12.80;99.90
11107;DHT22;5607;48.302;14.294;2024-03-02T16:23:03;12.70;99.90
11107;DHT22;5607;48.302;14.294;2024-03-02T16:25:50;12.60;99.90
11107;DHT22;5607;48.302;14.294;2024-03-02T16:28:39;12.50;99.90
11107;DHT22;5607;48.302;14.294;2024-03-02T16:31:26;12.50;99.90
11107;DHT22;5607;48.302;14.294;2024-03-02T16:34:12;12.40;99.90
11107;DHT22;5607;48.302;14.294;2024-03-02T16:36:59;12.40;99.90
11107;DHT22;5607;48.302;14.294;2024-03-02T16:39:46;12.30;99.90
11107;DHT22;5607;48.302;14.294;2024-03-02T16:42:34;12.30;99.90
11107;DHT22;5607;48.302;14.294;2024-03-02T16:45:21;12.20;99.90
11107;DHT22;5607;48.302;14.294;2024-03-02T16:48:07;12.00;99.90
11107;DHT22;5607;48.302;14.294;2024-03-02T16:50:54;11.90;99.90
11107;DHT22;5607;48.302;14.294;2024-03-02T16:53:47;11.90;99.90
11107;DHT22;5607;48.302;14.294;2024-03-02T16:59:27;11.90;99.90
11107;DHT22;5607;48.302;14.294;2024-03-02T17:02:13;11.90;99.90
11107;DHT22;5607;48.302;14.294;2024-03-02T17:05:00;11.80;99.90
11107;DHT22;5607;48.302;14.294;2024-03-02T17:07:47;11.70;99.90
11107;DHT22;5607;48.302;14.294;2024-03-02T17:10:34;11.70;99.90
11107;DHT22;5607;48.302;14.294;2024-03-02T17:13:22;11.60;99.90
11107;DHT22;5607;48.302;14.294;2024-03-02T17:16:10;11.60;99.90
11107;DHT22;5607;48.302;14.294;2024-03-02T17:18:57;11.60;99.90
11107;DHT22;5607;48.302;14.294;2024-03-02T17:21:43;11.50;99.90
11107;DHT22;5607;48.302;14.294;2024-03-02T17:24:30;11.50;99.90
11107;DHT22;5607;48.302;14.294;2024-03-02T17:27:16;11.50;99.90
11107;DHT22;5607;48.302;14.294;2024-03-02T17:30:04;11.50;99.90
11107;DHT22;5607;48.302;14.294;2024-03-02T17:32:52;11.50;99.90
11107;DHT22;5607;48.302;14.294;2024-03-02T17:35:39;11.40;99.90
11107;DHT22;5607;48.302;14.294;2024-03-02T17:38:26;11.30;99.90
11107;DHT22;5607;48.302;14.294;2024-03-02T17:41:14;11.30;99.90
11107;DHT22;5607;48.302;14.294;2024-03-02T17:44:00;11.20;99.90
11107;DHT22;5607;48.302;14.294;2024-03-02T17:46:47;11.10;99.90
11107;DHT22;5607;48.302;14.294;2024-03-02T17:49:34;11.00;99.90
11107;DHT22;5607;48.302;14.294;2024-03-02T17:52:21;11.00;99.90
11107;DHT22;5607;48.302;14.294;2024-03-02T17:55:07;11.00;99.90
11107;DHT22;5607;48.302;14.294;2024-03-02T17:57:54;10.90;99.90
11107;DHT22;5607;48.302;14.294;2024-03-02T18:00:41;10.80;99.90
11107;DHT22;5607;48.302;14.294;2024-03-02T18:03:27;10.80;99.90
11107;DHT22;5607;48.302;14.294;2024-03-02T18:06:14;10.80;99.90
11107;DHT22;5607;48.302;14.294;2024-03-02T18:09:01;10.80;99.90